BENVENUTI AL 154° GRUPPO VIRTUALE
User Registration
User Profile
(optional)
(optional)
(optional)
The date of birth entered should use the format Year-Month-Day, ie 0000-00-00
Terms & Conditions
By signing up to this web site you accept the Terms & Conditions.
Cancel

METAR & TAF

[Source: ADDS]
METAR
LIPL 200555Z 23003KT CAVOK 18/16 Q1026 RMK SKC VIS MIN 9999 WIND THR31 23003KT WIND THR13 23003KT BLU =
LIPL 200500Z 2006/2015 VRB03KT CAVOK
TAF
LIPL 200500Z 2006/2015 VRB03KT CAVOK =

Notice: Undefined index: sun in /web/htdocs/www.154gruppovirtuale.it/home/modules/mod_wx/tmpl/default.php on line 13

Official Tools

CombatFlite Logo  
 
   

Network

Simulation Platform